Terminal Aerodrome Forecast
Issued by NWS

Home | Current Version | Previous Version | Text Only | Print | Product List | Glossary On
Versions: 1 2 3 4 5 6 7 8 9 10 11 12 13 14 15 16 17 18
000
FTUS44 KLZK 220521
TAFADF
TAF
KADF 220521Z 2206/2306 16004KT P6SM VCFG SCT250
      TEMPO 2206/2209 4SM BR
     FM220900 00000KT 4SM BR SCT002
      TEMPO 2209/2213 3/4SM BR
     FM221300 23006KT P6SM FEW050 BKN250
     FM221900 23008G15KT P6SM VCTS SCT050CB BKN100 OVC250 PROB30
      2302/2306 5SM -TSRA OVC050CB=

USA.gov is the U.S. government's official web portal to all federal, state and local government web resources and services.